Pensacola Naval Air Station/Forrest Sherman field
KNPA : now visible

Airfield :











YOU CAN JOIN US ON...

 
LOGIN :

Register | Disclaimer

   EN    FR    IT 

 









Legend :    VFR   Marginal VFR   IFR   Intensive IFR   Very Intensive IFR
Visi :
Ceiling :
>= 8 km
>= 3000ft
5 to 8 km
1000 to 3000 ft
1500m to 5 km
500 to 1000 ft
800 to 1500m
200 to 500 ft
< 800m
< 200 ft
Symbols :   Thunderstorms  Fog  Heavy snow  Heavy precipitations  Wind > 20 kt






- Airport Elevation : 28 ft


KNPA - Pensacola Naval Air Station/Forrest Sherman field

CURRENT METAR :
  • 100518Z AUTO VRB03KT 5SM BR FEW010 SCT055 24/22 A2983 RMK AO2 T02390222

EXPIRED METARs :
  • 100456Z AUTO 32004KT 4SM BR FEW008 23/22 A2982 RMK AO2 PRESRR SLP098 T02330217
  • 100356Z AUTO 00000KT 5SM BR CLR 23/22 A2981 RMK AO2 SLP096 T02330217
  • 100256Z 00000KT 5SM BR FEW007 SCT050 BKN120 BKN250 24/22 A2981 RMK AO2 SLP095 T02390222 53016

TAF AMD TAF KNPA
Valid from the 10 at 00:00 until the 10 at 23:00 UTC


1000/1023 22008KT 9000 HZ SCT007 BKN140 BKN250 QNH2972INS
TEMPO 1000/1003 BKN007
FM100300 32006KT 9999 VCSH SCT007 BKN015 BKN035 BKN100 OVC250 QNH2975INS
TEMPO 1005/1008 8000 RA OVC007
FM100800 36013G22KT 9999 VCTS SCT015 BKN030CB OVC100 QNH2973INS
TEMPO 1008/1013 VRB20G30KT 4800 TSRA BKN015 OVC030CB
FM101300 01013G22KT 9999 VCSH OVC020 QNH2980INS
TEMPO 1013/1017 4800 SHRA BR SCT009 OVC015
FM101700 03012G17KT 9999 VCSH SCT015 SCT035 BKN080 OVC120 QNH2977INS
FM102100 04009KT 9999 SCT040 BKN120 BKN250 QNH2975INS AUTOMATED SENSOR METWATCH 1003 TIL 1011 T15/1012Z T21/1020Z AMD 0040Z FN20034



MET'MAP, your aeronautical weather chart ! - Copyright ORBIFLY December 2007 - Disclaimer

ORBIFLY MET'MAP TEAM :

Programming & Development : Alexandra Zaïnal
Concept & original design : Baudouin d'Aumeries
Assistance for programming : Marc-Olivier Méhu
Technical & hardware support : Manuel Goepfert

Contact : metmap@orbifly.com




SOURCES & CREDITS :

   NOAA       Earth
Advisory